sensor_id;sensor_type;location;lat;lon;timestamp;pressure;altitude;pressure_sealevel;temperature;humidity
52949;BME280;38812;50.942;3.644;2023-01-25T00:02:18;103706.53;;;0.64;100.00
52949;BME280;38812;50.942;3.644;2023-01-25T00:04:43;103698.34;;;0.71;100.00
52949;BME280;38812;50.942;3.644;2023-01-25T00:07:08;103705.81;;;0.66;100.00
52949;BME280;38812;50.942;3.644;2023-01-25T00:09:34;103709.31;;;0.67;100.00
52949;BME280;38812;50.942;3.644;2023-01-25T00:11:59;103705.44;;;0.60;100.00
52949;BME280;38812;50.942;3.644;2023-01-25T00:14:25;103697.88;;;0.50;100.00
52949;BME280;38812;50.942;3.644;2023-01-25T00:16:50;103704.34;;;0.57;100.00
52949;BME280;38812;50.942;3.644;2023-01-25T00:19:16;103714.69;;;0.57;100.00
52949;BME280;38812;50.942;3.644;2023-01-25T00:21:41;103692.28;;;0.44;100.00
52949;BME280;38812;50.942;3.644;2023-01-25T00:24:07;103701.94;;;0.47;100.00
52949;BME280;38812;50.942;3.644;2023-01-25T00:26:36;103706.81;;;0.55;100.00
52949;BME280;38812;50.942;3.644;2023-01-25T00:29:02;103715.59;;;0.57;100.00
52949;BME280;38812;50.942;3.644;2023-01-25T00:34:05;103707.94;;;0.59;100.00
52949;BME280;38812;50.942;3.644;2023-01-25T00:39:04;103711.22;;;0.56;100.00
52949;BME280;38812;50.942;3.644;2023-01-25T00:41:30;103705.94;;;0.55;100.00
52949;BME280;38812;50.942;3.644;2023-01-25T00:43:55;103699.59;;;0.63;100.00
52949;BME280;38812;50.942;3.644;2023-01-25T00:46:21;103701.75;;;0.57;100.00
52949;BME280;38812;50.942;3.644;2023-01-25T00:48:46;103702.16;;;0.63;100.00
52949;BME280;38812;50.942;3.644;2023-01-25T00:51:12;103685.25;;;0.55;100.00
52949;BME280;38812;50.942;3.644;2023-01-25T00:53:37;103681.56;;;0.51;100.00
52949;BME280;38812;50.942;3.644;2023-01-25T00:56:03;103692.00;;;0.53;100.00
52949;BME280;38812;50.942;3.644;2023-01-25T00:58:29;103679.66;;;0.49;100.00
52949;BME280;38812;50.942;3.644;2023-01-25T01:00:55;103678.06;;;0.51;100.00
52949;BME280;38812;50.942;3.644;2023-01-25T01:03:21;103684.34;;;0.54;100.00
52949;BME280;38812;50.942;3.644;2023-01-25T01:05:47;103681.66;;;0.40;100.00
52949;BME280;38812;50.942;3.644;2023-01-25T01:08:13;103675.28;;;0.34;100.00
52949;BME280;38812;50.942;3.644;2023-01-25T01:10:39;103671.31;;;0.40;100.00
52949;BME280;38812;50.942;3.644;2023-01-25T01:13:05;103675.28;;;0.34;100.00
52949;BME280;38812;50.942;3.644;2023-01-25T01:15:30;103686.53;;;0.35;100.00
52949;BME280;38812;50.942;3.644;2023-01-25T01:17:55;103680.25;;;0.31;100.00
52949;BME280;38812;50.942;3.644;2023-01-25T01:20:21;103664.31;;;0.25;100.00
52949;BME280;38812;50.942;3.644;2023-01-25T01:22:46;103672.28;;;0.28;100.00
52949;BME280;38812;50.942;3.644;2023-01-25T01:25:12;103679.06;;;0.40;100.00
52949;BME280;38812;50.942;3.644;2023-01-25T01:27:38;103676.66;;;0.29;100.00
52949;BME280;38812;50.942;3.644;2023-01-25T01:30:04;103675.28;;;0.21;100.00
52949;BME280;38812;50.942;3.644;2023-01-25T01:32:30;103678.56;;;0.32;100.00
52949;BME280;38812;50.942;3.644;2023-01-25T01:34:56;103676.09;;;0.33;100.00
52949;BME280;38812;50.942;3.644;2023-01-25T01:37:21;103672.69;;;0.34;100.00
52949;BME280;38812;50.942;3.644;2023-01-25T01:39:46;103679.47;;;0.19;100.00
52949;BME280;38812;50.942;3.644;2023-01-25T01:42:12;103687.81;;;0.28;100.00
52949;BME280;38812;50.942;3.644;2023-01-25T01:44:49;103664.63;;;0.17;100.00
52949;BME280;38812;50.942;3.644;2023-01-25T01:49:49;103686.00;;;0.27;100.00
52949;BME280;38812;50.942;3.644;2023-01-25T01:52:17;103680.03;;;0.28;100.00
52949;BME280;38812;50.942;3.644;2023-01-25T01:57:40;103693.19;;;0.31;100.00
52949;BME280;38812;50.942;3.644;2023-01-25T02:00:14;103674.47;;;0.22;100.00
52949;BME280;38812;50.942;3.644;2023-01-25T02:02:40;103686.22;;;0.30;100.00
52949;BME280;38812;50.942;3.644;2023-01-25T02:05:10;103675.88;;;0.30;100.00
52949;BME280;38812;50.942;3.644;2023-01-25T02:07:38;103680.63;;;0.24;100.00
52949;BME280;38812;50.942;3.644;2023-01-25T02:10:05;103681.03;;;0.17;100.00
52949;BME280;38812;50.942;3.644;2023-01-25T02:12:31;103692.19;;;0.29;100.00
52949;BME280;38812;50.942;3.644;2023-01-25T02:14:57;103665.81;;;0.22;100.00
52949;BME280;38812;50.942;3.644;2023-01-25T02:17:28;103681.44;;;0.23;100.00
52949;BME280;38812;50.942;3.644;2023-01-25T02:22:24;103657.78;;;0.30;100.00
52949;BME280;38812;50.942;3.644;2023-01-25T02:25:05;103674.09;;;0.43;100.00
52949;BME280;38812;50.942;3.644;2023-01-25T02:27:32;103669.31;;;0.36;100.00
52949;BME280;38812;50.942;3.644;2023-01-25T02:30:01;103677.88;;;0.34;100.00
52949;BME280;38812;50.942;3.644;2023-01-25T02:32:27;103676.88;;;0.32;100.00
52949;BME280;38812;50.942;3.644;2023-01-25T02:34:52;103677.25;;;0.25;100.00
52949;BME280;38812;50.942;3.644;2023-01-25T02:37:17;103682.75;;;0.30;100.00
52949;BME280;38812;50.942;3.644;2023-01-25T02:39:43;103670.13;;;0.21;100.00
52949;BME280;38812;50.942;3.644;2023-01-25T02:42:08;103678.66;;;0.33;100.00
52949;BME280;38812;50.942;3.644;2023-01-25T02:44:34;103673.38;;;0.32;100.00
52949;BME280;38812;50.942;3.644;2023-01-25T02:47:00;103670.91;;;0.33;100.00
52949;BME280;38812;50.942;3.644;2023-01-25T02:49:25;103674.88;;;0.28;100.00
52949;BME280;38812;50.942;3.644;2023-01-25T02:51:53;103671.69;;;0.32;100.00
52949;BME280;38812;50.942;3.644;2023-01-25T02:54:22;103666.91;;;0.25;100.00
52949;BME280;38812;50.942;3.644;2023-01-25T02:56:48;103661.84;;;0.27;100.00
52949;BME280;38812;50.942;3.644;2023-01-25T02:59:14;103663.63;;;0.28;100.00
52949;BME280;38812;50.942;3.644;2023-01-25T03:01:42;103663.25;;;0.35;100.00
52949;BME280;38812;50.942;3.644;2023-01-25T03:04:08;103653.59;;;0.46;100.00
52949;BME280;38812;50.942;3.644;2023-01-25T03:06:34;103651.41;;;0.25;100.00
52949;BME280;38812;50.942;3.644;2023-01-25T03:09:00;103662.63;;;0.26;100.00
52949;BME280;38812;50.942;3.644;2023-01-25T03:11:26;103652.81;;;0.20;100.00
52949;BME280;38812;50.942;3.644;2023-01-25T03:13:51;103641.47;;;0.18;100.00
52949;BME280;38812;50.942;3.644;2023-01-25T03:16:17;103653.97;;;0.25;100.00
52949;BME280;38812;50.942;3.644;2023-01-25T03:18:43;103652.50;;;0.29;100.00
52949;BME280;38812;50.942;3.644;2023-01-25T03:21:11;103645.63;;;0.29;100.00
52949;BME280;38812;50.942;3.644;2023-01-25T03:23:37;103654.81;;;0.38;100.00
52949;BME280;38812;50.942;3.644;2023-01-25T03:26:15;103617.00;;;0.26;100.00
52949;BME280;38812;50.942;3.644;2023-01-25T03:28:41;103642.25;;;0.30;100.00
52949;BME280;38812;50.942;3.644;2023-01-25T03:31:09;103631.34;;;0.21;100.00
52949;BME280;38812;50.942;3.644;2023-01-25T03:33:36;103632.81;;;0.18;100.00
52949;BME280;38812;50.942;3.644;2023-01-25T03:36:02;103637.69;;;0.13;100.00
52949;BME280;38812;50.942;3.644;2023-01-25T03:38:28;103629.94;;;0.13;100.00
52949;BME280;38812;50.942;3.644;2023-01-25T03:40:54;103630.03;;;0.15;100.00
52949;BME280;38812;50.942;3.644;2023-01-25T03:43:20;103631.50;;;0.24;100.00
52949;BME280;38812;50.942;3.644;2023-01-25T03:45:50;103610.72;;;0.10;100.00
52949;BME280;38812;50.942;3.644;2023-01-25T03:48:16;103615.22;;;0.12;100.00
52949;BME280;38812;50.942;3.644;2023-01-25T03:50:42;103617.78;;;-0.01;100.00
52949;BME280;38812;50.942;3.644;2023-01-25T03:53:24;103613.91;;;0.06;100.00
52949;BME280;38812;50.942;3.644;2023-01-25T03:56:02;103609.16;;;-0.02;100.00
52949;BME280;38812;50.942;3.644;2023-01-25T03:58:29;103607.94;;;-0.07;100.00
52949;BME280;38812;50.942;3.644;2023-01-25T04:00:56;103605.25;;;0.05;100.00
52949;BME280;38812;50.942;3.644;2023-01-25T04:03:22;103604.25;;;0.03;100.00
52949;BME280;38812;50.942;3.644;2023-01-25T04:05:48;103613.53;;;-0.01;100.00
52949;BME280;38812;50.942;3.644;2023-01-25T04:08:13;103611.41;;;-0.06;100.00
52949;BME280;38812;50.942;3.644;2023-01-25T04:10:39;103612.41;;;-0.04;100.00
52949;BME280;38812;50.942;3.644;2023-01-25T04:13:05;103618.97;;;-0.09;100.00
52949;BME280;38812;50.942;3.644;2023-01-25T04:15:30;103609.78;;;-0.17;100.00
52949;BME280;38812;50.942;3.644;2023-01-25T04:17:56;103617.19;;;-0.10;100.00
52949;BME280;38812;50.942;3.644;2023-01-25T04:20:22;103612.91;;;-0.10;100.00
52949;BME280;38812;50.942;3.644;2023-01-25T04:22:47;103606.25;;;-0.06;100.00
52949;BME280;38812;50.942;3.644;2023-01-25T04:25:13;103607.03;;;-0.07;100.00
52949;BME280;38812;50.942;3.644;2023-01-25T04:27:39;103602.47;;;-0.11;100.00
52949;BME280;38812;50.942;3.644;2023-01-25T04:30:04;103604.78;;;-0.03;100.00
52949;BME280;38812;50.942;3.644;2023-01-25T04:32:30;103605.94;;;-0.11;100.00
52949;BME280;38812;50.942;3.644;2023-01-25T04:34:56;103601.66;;;-0.10;100.00
52949;BME280;38812;50.942;3.644;2023-01-25T04:37:21;103609.72;;;-0.06;100.00
52949;BME280;38812;50.942;3.644;2023-01-25T04:39:47;103605.34;;;-0.07;100.00
52949;BME280;38812;50.942;3.644;2023-01-25T04:42:12;103612.22;;;-0.07;100.00
52949;BME280;38812;50.942;3.644;2023-01-25T04:44:37;103613.31;;;-0.04;100.00
52949;BME280;38812;50.942;3.644;2023-01-25T04:47:03;103598.09;;;-0.12;100.00
52949;BME280;38812;50.942;3.644;2023-01-25T04:49:28;103591.00;;;-0.28;100.00
52949;BME280;38812;50.942;3.644;2023-01-25T04:51:54;103601.94;;;-0.19;100.00
52949;BME280;38812;50.942;3.644;2023-01-25T04:54:19;103609.59;;;-0.20;100.00
52949;BME280;38812;50.942;3.644;2023-01-25T04:56:44;103596.88;;;-0.30;100.00
52949;BME280;38812;50.942;3.644;2023-01-25T04:59:10;103593.69;;;-0.26;100.00
52949;BME280;38812;50.942;3.644;2023-01-25T05:01:35;103600.25;;;-0.18;100.00
52949;BME280;38812;50.942;3.644;2023-01-25T05:04:00;103590.72;;;-0.19;100.00
52949;BME280;38812;50.942;3.644;2023-01-25T05:06:26;103607.31;;;-0.16;100.00
52949;BME280;38812;50.942;3.644;2023-01-25T05:08:51;103590.31;;;-0.25;100.00
52949;BME280;38812;50.942;3.644;2023-01-25T05:11:17;103592.13;;;-0.24;100.00
52949;BME280;38812;50.942;3.644;2023-01-25T05:13:42;103589.91;;;-0.18;100.00
52949;BME280;38812;50.942;3.644;2023-01-25T05:16:07;103586.44;;;-0.19;100.00
52949;BME280;38812;50.942;3.644;2023-01-25T05:18:33;103591.34;;;-0.10;100.00
52949;BME280;38812;50.942;3.644;2023-01-25T05:20:58;103582.84;;;-0.21;100.00
52949;BME280;38812;50.942;3.644;2023-01-25T05:23:23;103591.59;;;-0.19;100.00
52949;BME280;38812;50.942;3.644;2023-01-25T05:25:49;103588.91;;;-0.20;100.00
52949;BME280;38812;50.942;3.644;2023-01-25T05:28:32;103584.75;;;-0.31;100.00
52949;BME280;38812;50.942;3.644;2023-01-25T05:30:58;103569.66;;;-0.25;100.00
52949;BME280;38812;50.942;3.644;2023-01-25T05:33:23;103588.91;;;-0.20;100.00
52949;BME280;38812;50.942;3.644;2023-01-25T05:35:49;103582.78;;;-0.22;100.00
52949;BME280;38812;50.942;3.644;2023-01-25T05:38:14;103586.75;;;-0.14;100.00
52949;BME280;38812;50.942;3.644;2023-01-25T05:40:39;103585.75;;;-0.29;100.00
52949;BME280;38812;50.942;3.644;2023-01-25T05:43:05;103588.53;;;-0.26;100.00
52949;BME280;38812;50.942;3.644;2023-01-25T05:45:30;103580.06;;;-0.37;100.00
52949;BME280;38812;50.942;3.644;2023-01-25T05:47:56;103578.41;;;-0.23;100.00
52949;BME280;38812;50.942;3.644;2023-01-25T05:50:24;103572.25;;;-0.12;100.00
52949;BME280;38812;50.942;3.644;2023-01-25T05:52:50;103572.84;;;-0.16;100.00
52949;BME280;38812;50.942;3.644;2023-01-25T05:55:15;103580.88;;;-0.25;100.00
52949;BME280;38812;50.942;3.644;2023-01-25T05:57:41;103574.63;;;-0.28;100.00
52949;BME280;38812;50.942;3.644;2023-01-25T06:00:07;103583.94;;;-0.30;100.00
52949;BME280;38812;50.942;3.644;2023-01-25T06:02:32;103585.94;;;-0.26;100.00
52949;BME280;38812;50.942;3.644;2023-01-25T06:04:58;103576.31;;;-0.16;100.00
52949;BME280;38812;50.942;3.644;2023-01-25T06:07:23;103575.31;;;-0.18;100.00
52949;BME280;38812;50.942;3.644;2023-01-25T06:09:49;103583.16;;;-0.16;100.00
52949;BME280;38812;50.942;3.644;2023-01-25T06:12:14;103571.94;;;-0.30;100.00
52949;BME280;38812;50.942;3.644;2023-01-25T06:14:41;103582.56;;;-0.25;100.00
52949;BME280;38812;50.942;3.644;2023-01-25T06:17:06;103574.50;;;-0.30;100.00
52949;BME280;38812;50.942;3.644;2023-01-25T06:19:32;103575.41;;;-0.29;100.00
52949;BME280;38812;50.942;3.644;2023-01-25T06:21:58;103580.38;;;-0.19;100.00
52949;BME280;38812;50.942;3.644;2023-01-25T06:24:23;103566.75;;;-0.30;100.00
52949;BME280;38812;50.942;3.644;2023-01-25T06:26:49;103578.00;;;-0.29;100.00
52949;BME280;38812;50.942;3.644;2023-01-25T06:29:14;103576.00;;;-0.33;100.00
52949;BME280;38812;50.942;3.644;2023-01-25T06:31:39;103551.31;;;-0.42;100.00
52949;BME280;38812;50.942;3.644;2023-01-25T06:34:05;103555.75;;;-0.27;100.00
52949;BME280;38812;50.942;3.644;2023-01-25T06:36:32;103561.91;;;-0.12;100.00
52949;BME280;38812;50.942;3.644;2023-01-25T06:38:57;103557.91;;;-0.20;100.00
52949;BME280;38812;50.942;3.644;2023-01-25T06:41:23;103563.06;;;-0.33;100.00
52949;BME280;38812;50.942;3.644;2023-01-25T06:43:51;103549.19;;;-0.22;100.00
52949;BME280;38812;50.942;3.644;2023-01-25T06:46:18;103559.69;;;-0.32;100.00
52949;BME280;38812;50.942;3.644;2023-01-25T06:48:43;103570.81;;;-0.33;100.00
52949;BME280;38812;50.942;3.644;2023-01-25T06:51:11;103569.66;;;-0.25;100.00
52949;BME280;38812;50.942;3.644;2023-01-25T06:53:39;103564.44;;;-0.39;100.00
52949;BME280;38812;50.942;3.644;2023-01-25T06:56:19;103558.81;;;-0.33;100.00
52949;BME280;38812;50.942;3.644;2023-01-25T06:58:46;103568.25;;;-0.20;100.00
52949;BME280;38812;50.942;3.644;2023-01-25T07:01:20;103575.94;;;-0.22;100.00
52949;BME280;38812;50.942;3.644;2023-01-25T07:03:50;103581.69;;;-0.13;100.00
52949;BME280;38812;50.942;3.644;2023-01-25T07:06:17;103581.56;;;-0.27;100.00
52949;BME280;38812;50.942;3.644;2023-01-25T07:08:43;103573.03;;;-0.26;100.00
52949;BME280;38812;50.942;3.644;2023-01-25T07:11:10;103563.09;;;-0.20;100.00
52949;BME280;38812;50.942;3.644;2023-01-25T07:13:39;103575.72;;;-0.25;100.00
52949;BME280;38812;50.942;3.644;2023-01-25T07:16:06;103575.22;;;-0.19;100.00
52949;BME280;38812;50.942;3.644;2023-01-25T07:18:33;103574.19;;;-0.35;100.00
52949;BME280;38812;50.942;3.644;2023-01-25T07:21:10;103572.19;;;-0.39;100.00
52949;BME280;38812;50.942;3.644;2023-01-25T07:23:36;103576.00;;;-0.33;100.00
52949;BME280;38812;50.942;3.644;2023-01-25T07:26:03;103566.06;;;-0.27;100.00
52949;BME280;38812;50.942;3.644;2023-01-25T07:28:30;103570.81;;;-0.33;100.00
52949;BME280;38812;50.942;3.644;2023-01-25T07:30:56;103569.72;;;-0.37;100.00
52949;BME280;38812;50.942;3.644;2023-01-25T07:33:21;103563.28;;;-0.44;100.00
52949;BME280;38812;50.942;3.644;2023-01-25T07:35:47;103558.28;;;-0.41;100.00
52949;BME280;38812;50.942;3.644;2023-01-25T07:38:15;103550.25;;;-0.45;100.00
52949;BME280;38812;50.942;3.644;2023-01-25T07:40:40;103560.19;;;-0.38;100.00
52949;BME280;38812;50.942;3.644;2023-01-25T07:43:06;103531.81;;;-0.63;100.00
52949;BME280;38812;50.942;3.644;2023-01-25T07:45:31;103539.94;;;-0.45;100.00
52949;BME280;38812;50.942;3.644;2023-01-25T07:47:58;103556.63;;;-0.27;100.00
52949;BME280;38812;50.942;3.644;2023-01-25T07:50:27;103563.28;;;-0.44;100.00
52949;BME280;38812;50.942;3.644;2023-01-25T07:52:53;103555.38;;;-0.58;100.00
52949;BME280;38812;50.942;3.644;2023-01-25T07:55:19;103556.47;;;-0.55;100.00
52949;BME280;38812;50.942;3.644;2023-01-25T07:57:45;103550.31;;;-0.57;100.00
52949;BME280;38812;50.942;3.644;2023-01-25T08:00:11;103541.41;;;-0.36;100.00
52949;BME280;38812;50.942;3.644;2023-01-25T08:02:38;103554.09;;;-0.52;100.00
52949;BME280;38812;50.942;3.644;2023-01-25T08:05:03;103541.41;;;-0.36;100.00
52949;BME280;38812;50.942;3.644;2023-01-25T08:07:30;103537.44;;;-0.44;100.00
52949;BME280;38812;50.942;3.644;2023-01-25T08:09:56;103531.34;;;-0.57;100.00
52949;BME280;38812;50.942;3.644;2023-01-25T08:12:21;103540.81;;;-0.45;100.00
52949;BME280;38812;50.942;3.644;2023-01-25T08:14:46;103533.66;;;-0.49;100.00
52949;BME280;38812;50.942;3.644;2023-01-25T08:17:14;103533.75;;;-0.47;100.00
52949;BME280;38812;50.942;3.644;2023-01-25T08:19:39;103534.47;;;-0.37;100.00
52949;BME280;38812;50.942;3.644;2023-01-25T08:22:06;103531.56;;;-0.41;100.00
52949;BME280;38812;50.942;3.644;2023-01-25T08:24:32;103516.16;;;-0.53;100.00
52949;BME280;38812;50.942;3.644;2023-01-25T08:26:57;103512.38;;;-0.58;100.00
52949;BME280;38812;50.942;3.644;2023-01-25T08:29:23;103521.13;;;-0.43;100.00
52949;BME280;38812;50.942;3.644;2023-01-25T08:31:49;103527.13;;;-0.44;100.00
52949;BME280;38812;50.942;3.644;2023-01-25T08:34:14;103523.31;;;-0.49;100.00
52949;BME280;38812;50.942;3.644;2023-01-25T08:36:39;103531.88;;;-0.50;100.00
52949;BME280;38812;50.942;3.644;2023-01-25T08:39:06;103531.88;;;-0.50;100.00
52949;BME280;38812;50.942;3.644;2023-01-25T08:41:34;103528.06;;;-0.55;100.00
52949;BME280;38812;50.942;3.644;2023-01-25T08:43:59;103512.78;;;-0.52;100.00
52949;BME280;38812;50.942;3.644;2023-01-25T08:46:29;103527.91;;;-0.45;100.00
52949;BME280;38812;50.942;3.644;2023-01-25T08:48:55;103516.59;;;-0.47;100.00
52949;BME280;38812;50.942;3.644;2023-01-25T08:51:23;103526.22;;;-0.44;100.00
52949;BME280;38812;50.942;3.644;2023-01-25T08:53:48;103526.91;;;-0.47;100.00
52949;BME280;38812;50.942;3.644;2023-01-25T08:56:15;103531.88;;;-0.50;100.00
52949;BME280;38812;50.942;3.644;2023-01-25T08:58:43;103537.44;;;-0.44;100.00
52949;BME280;38812;50.942;3.644;2023-01-25T09:01:11;103519.78;;;-0.24;100.00
52949;BME280;38812;50.942;3.644;2023-01-25T09:03:42;103522.47;;;-0.23;100.00
52949;BME280;38812;50.942;3.644;2023-01-25T09:06:09;103526.13;;;-0.06;100.00
52949;BME280;38812;50.942;3.644;2023-01-25T09:08:35;103516.47;;;-0.35;100.00
52949;BME280;38812;50.942;3.644;2023-01-25T09:11:10;103532.97;;;-0.46;100.00
52949;BME280;38812;50.942;3.644;2023-01-25T09:13:35;103541.22;;;-0.39;100.00
52949;BME280;38812;50.942;3.644;2023-01-25T09:16:02;103518.75;;;-0.40;100.00
52949;BME280;38812;50.942;3.644;2023-01-25T09:18:29;103532.56;;;-0.39;100.00
52949;BME280;38812;50.942;3.644;2023-01-25T09:20:55;103545.00;;;-0.33;100.00
52949;BME280;38812;50.942;3.644;2023-01-25T09:23:20;103522.16;;;-0.27;100.00
52949;BME280;38812;50.942;3.644;2023-01-25T09:25:48;103529.00;;;-0.28;100.00
52949;BME280;38812;50.942;3.644;2023-01-25T09:28:19;103533.50;;;-0.25;100.00
52949;BME280;38812;50.942;3.644;2023-01-25T09:30:45;103524.94;;;-0.24;100.00
52949;BME280;38812;50.942;3.644;2023-01-25T09:33:10;103518.09;;;-0.24;100.00
52949;BME280;38812;50.942;3.644;2023-01-25T09:35:46;103527.44;;;-0.26;100.00
52949;BME280;38812;50.942;3.644;2023-01-25T09:38:12;103533.06;;;-0.31;100.00
52949;BME280;38812;50.942;3.644;2023-01-25T09:40:38;103525.91;;;-0.36;100.00
52949;BME280;38812;50.942;3.644;2023-01-25T09:43:17;103527.44;;;-0.26;100.00
52949;BME280;38812;50.942;3.644;2023-01-25T09:45:49;103527.22;;;-0.29;100.00
52949;BME280;38812;50.942;3.644;2023-01-25T09:48:47;103527.53;;;-0.11;100.00
52949;BME280;38812;50.942;3.644;2023-01-25T09:53:51;103515.00;;;-0.18;100.00
52949;BME280;38812;50.942;3.644;2023-01-25T09:58:51;103506.84;;;-0.11;100.00
52949;BME280;38812;50.942;3.644;2023-01-25T10:04:20;103522.84;;;-0.17;100.00
52949;BME280;38812;50.942;3.644;2023-01-25T10:06:51;103512.81;;;-0.25;100.00
52949;BME280;38812;50.942;3.644;2023-01-25T10:11:48;103521.75;;;-0.20;100.00
52949;BME280;38812;50.942;3.644;2023-01-25T10:14:16;103512.13;;;-0.23;100.00
52949;BME280;38812;50.942;3.644;2023-01-25T10:19:20;103504.06;;;-0.14;100.00
52949;BME280;38812;50.942;3.644;2023-01-25T10:21:54;103494.94;;;-0.09;100.00
52949;BME280;38812;50.942;3.644;2023-01-25T10:25:05;103495.34;;;-0.03;100.00
52949;BME280;38812;50.942;3.644;2023-01-25T10:32:47;103484.91;;;-0.05;100.00
52949;BME280;38812;50.942;3.644;2023-01-25T10:35:20;103482.31;;;-0.05;100.00
52949;BME280;38812;50.942;3.644;2023-01-25T10:37:47;103471.28;;;-0.02;100.00
52949;BME280;38812;50.942;3.644;2023-01-25T10:40:18;103466.94;;;0.25;100.00
52949;BME280;38812;50.942;3.644;2023-01-25T10:45:17;103454.94;;;0.12;100.00
52949;BME280;38812;50.942;3.644;2023-01-25T10:47:46;103449.97;;;0.02;100.00
52949;BME280;38812;50.942;3.644;2023-01-25T10:50:54;103446.38;;;0.13;100.00
52949;BME280;38812;50.942;3.644;2023-01-25T10:53:28;103439.03;;;0.06;100.00
52949;BME280;38812;50.942;3.644;2023-01-25T10:58:44;103427.69;;;0.17;100.00
52949;BME280;38812;50.942;3.644;2023-01-25T11:01:29;103427.72;;;0.04;100.00
52949;BME280;38812;50.942;3.644;2023-01-25T11:03:55;103423.22;;;0.02;100.00
52949;BME280;38812;50.942;3.644;2023-01-25T11:06:37;103422.72;;;0.07;100.00
52949;BME280;38812;50.942;3.644;2023-01-25T11:09:30;103408.81;;;0.18;100.00
52949;BME280;38812;50.942;3.644;2023-01-25T11:12:01;103406.41;;;0.21;100.00
52949;BME280;38812;50.942;3.644;2023-01-25T11:14:30;103405.41;;;0.19;100.00
52949;BME280;38812;50.942;3.644;2023-01-25T11:16:57;103392.91;;;0.12;100.00
52949;BME280;38812;50.942;3.644;2023-01-25T11:21:53;103381.16;;;0.17;100.00
52949;BME280;38812;50.942;3.644;2023-01-25T11:24:19;103369.03;;;0.16;100.00
52949;BME280;38812;50.942;3.644;2023-01-25T11:26:44;103377.97;;;0.21;100.00
52949;BME280;38812;50.942;3.644;2023-01-25T11:31:37;103359.78;;;0.20;100.00
52949;BME280;38812;50.942;3.644;2023-01-25T11:34:13;103361.47;;;0.19;100.00
52949;BME280;38812;50.942;3.644;2023-01-25T11:39:50;103341.34;;;0.28;100.00
52949;BME280;38812;50.942;3.644;2023-01-25T11:48:00;103325.03;;;0.29;100.00
52949;BME280;38812;50.942;3.644;2023-01-25T11:50:40;103324.47;;;0.20;100.00
52949;BME280;38812;50.942;3.644;2023-01-25T11:53:47;103316.72;;;0.20;100.00
52949;BME280;38812;50.942;3.644;2023-01-25T12:04:36;103294.06;;;0.16;100.00
52949;BME280;38812;50.942;3.644;2023-01-25T12:07:09;103281.09;;;0.02;100.00
52949;BME280;38812;50.942;3.644;2023-01-25T12:10:02;103281.38;;;0.06;100.00
52949;BME280;38812;50.942;3.644;2023-01-25T12:15:17;103262.59;;;0.09;100.00
52949;BME280;38812;50.942;3.644;2023-01-25T12:18:03;103262.28;;;0.04;100.00
52949;BME280;38812;50.942;3.644;2023-01-25T12:26:29;103234.72;;;-0.25;100.00
52949;BME280;38812;50.942;3.644;2023-01-25T12:29:37;103233.34;;;-0.05;100.00
52949;BME280;38812;50.942;3.644;2023-01-25T12:32:11;103223.53;;;0.04;100.00
52949;BME280;38812;50.942;3.644;2023-01-25T12:34:46;103219.06;;;-0.13;100.00
52949;BME280;38812;50.942;3.644;2023-01-25T12:37:20;103221.34;;;-0.18;100.00
52949;BME280;38812;50.942;3.644;2023-01-25T12:39:59;103215.09;;;-0.21;100.00
52949;BME280;38812;50.942;3.644;2023-01-25T12:42:36;103202.19;;;-0.21;100.00
52949;BME280;38812;50.942;3.644;2023-01-25T12:45:17;103201.75;;;-0.14;100.00
52949;BME280;38812;50.942;3.644;2023-01-25T12:47:52;103197.84;;;-0.22;100.00
52949;BME280;38812;50.942;3.644;2023-01-25T12:50:26;103180.00;;;-0.32;100.00
52949;BME280;38812;50.942;3.644;2023-01-25T12:52:53;103189.13;;;-0.10;100.00
52949;BME280;38812;50.942;3.644;2023-01-25T12:55:20;103180.91;;;-0.17;100.00
52949;BME280;38812;50.942;3.644;2023-01-25T12:58:19;103182.66;;;-0.03;100.00
52949;BME280;38812;50.942;3.644;2023-01-25T13:00:53;103159.56;;;0.00;100.00
52949;BME280;38812;50.942;3.644;2023-01-25T13:06:21;103149.06;;;-0.03;100.00
52949;BME280;38812;50.942;3.644;2023-01-25T13:11:43;103139.69;;;-0.01;100.00
52949;BME280;38812;50.942;3.644;2023-01-25T13:16:44;103142.97;;;0.11;100.00
52949;BME280;38812;50.942;3.644;2023-01-25T13:21:57;103124.19;;;0.14;100.00
52949;BME280;38812;50.942;3.644;2023-01-25T13:25:04;103121.22;;;0.08;100.00
52949;BME280;38812;50.942;3.644;2023-01-25T13:27:26;103109.50;;;-0.02;100.00
52949;BME280;38812;50.942;3.644;2023-01-25T13:29:59;103129.97;;;0.10;100.00
52949;BME280;38812;50.942;3.644;2023-01-25T13:33:13;103121.06;;;0.19;100.00
52949;BME280;38812;50.942;3.644;2023-01-25T13:35:40;103121.22;;;0.22;100.00
52949;BME280;38812;50.942;3.644;2023-01-25T13:38:27;103111.06;;;0.11;100.00
52949;BME280;38812;50.942;3.644;2023-01-25T13:41:05;103114.09;;;0.18;100.00
52949;BME280;38812;50.942;3.644;2023-01-25T13:43:38;103114.09;;;0.18;100.00
52949;BME280;38812;50.942;3.644;2023-01-25T13:46:05;103106.63;;;0.08;100.00
52949;BME280;38812;50.942;3.644;2023-01-25T13:48:34;103112.22;;;0.01;100.00
52949;BME280;38812;50.942;3.644;2023-01-25T13:51:03;103118.72;;;0.09;100.00
52949;BME280;38812;50.942;3.644;2023-01-25T13:53:30;103119.97;;;0.01;100.00
52949;BME280;38812;50.942;3.644;2023-01-25T13:56:00;103118.03;;;-0.03;100.00
52949;BME280;38812;50.942;3.644;2023-01-25T13:58:34;103106.72;;;-0.05;100.00
52949;BME280;38812;50.942;3.644;2023-01-25T14:03:35;103112.16;;;0.14;100.00
52949;BME280;38812;50.942;3.644;2023-01-25T14:06:01;103106.78;;;0.11;100.00
52949;BME280;38812;50.942;3.644;2023-01-25T14:08:29;103102.44;;;0.10;100.00
52949;BME280;38812;50.942;3.644;2023-01-25T14:10:55;103105.09;;;0.12;100.00
52949;BME280;38812;50.942;3.644;2023-01-25T14:13:22;103092.19;;;-0.03;100.00
52949;BME280;38812;50.942;3.644;2023-01-25T14:15:56;103099.47;;;0.04;100.00